Portada
METAR-TAF:

METAR-TAF

Aeropuertos :

Aeropuerto Internacional del Kilimanjaro

Kilimanjaro, Tanzania

latitud: 03-25S, longitud: 037-04E, altitud: 891 m

Observación

El informe se hizo hace 44 minutos, a las 11:00 UTC
Viento calma
Temperatura 26°C
Humedad 70%
Presión 1020 hPa
Visibilidad 10 km o más
Cielo nuboso a una altura de 2800 ft

METAR: HTKJ 251100Z 00000KT 9999 BKN028 26/20 Q1020 NOSIG

Hora: 14:44 (11:44 UTC)

Pronóstico

El informe se hizo hace 6 horas y 44 minutos, a las 05:00 UTC
Pronóstico válido del 25 a las 06 UTC al 26 a las 06 UTC
Viento 5 kt del este
Visibilidad 10 km o más
Cielo nuboso a una altura de 2500 ft
Nubes dispersas a una altura de 3000 ft

TAF: HTKJ 250500Z 2506/2606 09005KT 9999 BKN025 BECM 2511/2514 SCT030

Observaciones y pronósticos meteorológicos de más de 4000 aeropuertos (mensajes METAR y TAF).

Los puntos amarillos y rojos representan las estaciones disponibles.

Ponga el ratón en el punto deseado para ver el nombre de la estación.

Haga clic para ver las observaciones y los pronósticos meteorológicos.

Para cambiar el mapa : haga clic en los botones verdes con una cruz de color negro para hacer un zoom, en el botón verde con un guión para alejar o en las flechas verdes para mapas adyacentes.


METAR-TAF: